createdAt,value
2022-08-14T00:01:03.936Z,35.50
2022-08-14T00:03:40.733Z,35.70
2022-08-14T00:06:25.635Z,35.80
2022-08-14T00:08:59.182Z,35.80
2022-08-14T00:11:31.180Z,35.80
2022-08-14T00:14:01.953Z,36.00
2022-08-14T00:16:41.251Z,36.10
2022-08-14T00:19:21.184Z,36.30
2022-08-14T00:21:50.958Z,36.40
2022-08-14T00:24:23.165Z,36.50
2022-08-14T00:26:57.209Z,36.70
2022-08-14T00:29:25.397Z,36.90
2022-08-14T00:31:56.612Z,36.80
2022-08-14T00:34:36.507Z,37.00
2022-08-14T00:37:05.567Z,36.90
2022-08-14T00:39:32.833Z,36.80
2022-08-14T00:41:59.917Z,36.90
2022-08-14T00:44:32.556Z,36.90
2022-08-14T00:47:10.846Z,37.00
2022-08-14T00:49:43.202Z,37.20
2022-08-14T00:52:14.242Z,37.20
2022-08-14T00:54:45.744Z,37.40
2022-08-14T00:57:12.780Z,37.90
2022-08-14T00:59:39.602Z,37.60
2022-08-14T01:02:09.430Z,37.60
2022-08-14T01:04:51.880Z,37.80
2022-08-14T01:07:22.857Z,37.80
2022-08-14T01:09:55.830Z,37.90
2022-08-14T01:12:27.065Z,38.20
2022-08-14T01:15:02.183Z,38.10
2022-08-14T01:17:50.740Z,38.40
2022-08-14T01:20:40.473Z,38.30
2022-08-14T01:23:16.167Z,38.50
2022-08-14T01:25:51.351Z,38.50
2022-08-14T01:28:46.145Z,38.70
2022-08-14T01:31:12.273Z,38.80
2022-08-14T01:33:59.138Z,39.00
2022-08-14T01:36:36.976Z,39.10
2022-08-14T01:39:15.181Z,39.10
2022-08-14T01:41:45.721Z,39.70
2022-08-14T01:44:33.260Z,39.40
2022-08-14T01:47:09.665Z,39.60
2022-08-14T01:49:46.053Z,39.60
2022-08-14T01:52:34.504Z,39.50
2022-08-14T01:55:01.423Z,39.60
2022-08-14T01:57:49.449Z,39.70
2022-08-14T02:00:16.808Z,39.80
2022-08-14T02:02:46.595Z,40.00
2022-08-14T02:05:14.029Z,40.00
2022-08-14T02:07:55.362Z,40.20
2022-08-14T02:10:26.047Z,40.30
2022-08-14T02:12:57.602Z,40.30
2022-08-14T02:15:26.428Z,40.40
2022-08-14T02:17:53.473Z,40.50
2022-08-14T02:20:23.637Z,40.60
2022-08-14T02:22:54.830Z,40.60
2022-08-14T02:25:22.700Z,40.70
2022-08-14T02:28:25.936Z,40.90
2022-08-14T02:30:43.363Z,41.00
2022-08-14T02:33:12.247Z,41.00
2022-08-14T02:35:43.483Z,41.10
2022-08-14T02:38:11.831Z,41.40
2022-08-14T02:40:58.096Z,41.30
2022-08-14T02:43:25.017Z,41.40
2022-08-14T02:46:06.275Z,41.50
2022-08-14T02:49:03.761Z,41.50
2022-08-14T02:51:30.377Z,41.60
2022-08-14T02:53:58.463Z,41.70
2022-08-14T02:56:30.164Z,41.70
2022-08-14T02:59:15.972Z,41.80
2022-08-14T03:01:50.279Z,41.90
2022-08-14T03:04:20.627Z,42.00
2022-08-14T03:06:57.091Z,42.00
2022-08-14T03:09:25.732Z,42.20
2022-08-14T03:12:12.532Z,42.30
2022-08-14T03:14:49.320Z,42.40
2022-08-14T03:17:16.097Z,42.70
2022-08-14T03:19:44.310Z,42.40
2022-08-14T03:22:17.681Z,42.50
2022-08-14T03:24:44.736Z,42.60
2022-08-14T03:27:13.858Z,42.80
2022-08-14T03:29:40.934Z,42.90
2022-08-14T03:32:08.370Z,42.90
2022-08-14T03:34:48.112Z,43.00
2022-08-14T03:37:51.035Z,43.10
2022-08-14T03:40:12.211Z,42.90
2022-08-14T03:42:45.442Z,43.00
2022-08-14T03:45:25.324Z,43.10
2022-08-14T03:48:02.243Z,43.30
2022-08-14T03:50:31.015Z,43.30
2022-08-14T03:53:01.664Z,43.40
2022-08-14T03:55:30.343Z,43.50
2022-08-14T03:57:58.145Z,43.50
2022-08-14T04:00:43.182Z,44.10
2022-08-14T04:03:17.952Z,43.70
2022-08-14T04:05:49.046Z,43.70
2022-08-14T04:08:29.196Z,43.70
2022-08-14T04:11:01.971Z,43.90
2022-08-14T04:13:33.917Z,43.90
2022-08-14T04:16:12.764Z,44.00
2022-08-14T04:18:46.178Z,44.50
2022-08-14T04:21:14.846Z,44.30
2022-08-14T04:23:44.009Z,44.10
2022-08-14T04:26:14.978Z,44.70
2022-08-14T04:29:07.476Z,44.30
2022-08-14T04:33:03.021Z,44.30
2022-08-14T04:34:28.199Z,44.40
2022-08-14T04:37:22.180Z,44.40
2022-08-14T04:40:12.717Z,44.70
2022-08-14T04:42:59.258Z,44.60
2022-08-14T04:45:35.557Z,44.60
2022-08-14T04:48:12.983Z,44.70
2022-08-14T04:50:53.786Z,45.00
2022-08-14T04:53:26.386Z,45.00
2022-08-14T04:56:02.741Z,45.00
2022-08-14T04:58:33.951Z,45.10
2022-08-14T05:01:03.443Z,45.10
2022-08-14T05:03:33.443Z,45.20
2022-08-14T05:06:03.806Z,45.20
2022-08-14T05:08:57.229Z,45.30
2022-08-14T05:11:20.653Z,45.30
2022-08-14T05:16:36.537Z,45.70
2022-08-14T05:19:25.084Z,45.50
2022-08-14T05:21:59.471Z,45.60
2022-08-14T05:24:29.528Z,45.60
2022-08-14T05:26:57.012Z,45.70
2022-08-14T05:29:26.400Z,45.90
2022-08-14T05:31:58.172Z,46.00
2022-08-14T05:34:31.642Z,46.00
2022-08-14T05:37:02.442Z,46.10
2022-08-14T05:39:31.737Z,46.20
2022-08-14T05:42:00.720Z,46.30
2022-08-14T05:44:30.625Z,46.40
2022-08-14T05:46:59.261Z,46.40
2022-08-14T05:49:33.142Z,46.50
2022-08-14T05:52:02.707Z,46.60
2022-08-14T05:54:35.577Z,46.80
2022-08-14T05:57:05.120Z,46.90
2022-08-14T05:59:39.324Z,46.80
2022-08-14T06:02:10.790Z,46.80
2022-08-14T06:04:47.991Z,47.00
2022-08-14T06:07:16.536Z,47.00
2022-08-14T06:09:43.532Z,47.00
2022-08-14T06:12:31.487Z,47.00
2022-08-14T06:15:08.088Z,46.90
2022-08-14T06:17:55.718Z,47.00
2022-08-14T06:20:26.371Z,47.30
2022-08-14T06:22:55.147Z,47.00
2022-08-14T06:25:23.636Z,47.20
2022-08-14T06:27:52.598Z,47.10
2022-08-14T06:30:22.945Z,47.20
2022-08-14T06:32:53.046Z,47.20
2022-08-14T06:35:20.869Z,47.10
2022-08-14T06:37:51.940Z,47.10
2022-08-14T06:40:27.183Z,47.30
2022-08-14T06:43:03.660Z,47.40
2022-08-14T06:45:32.121Z,47.30
2022-08-14T06:48:01.098Z,47.20
2022-08-14T06:50:29.995Z,47.20
2022-08-14T06:52:58.778Z,47.60
2022-08-14T06:55:27.720Z,47.70
2022-08-14T06:57:55.145Z,47.50
2022-08-14T07:00:30.821Z,47.40
2022-08-14T07:03:17.570Z,47.80
2022-08-14T07:05:55.936Z,47.60
2022-08-14T07:08:31.497Z,47.60
2022-08-14T07:11:04.011Z,48.20
2022-08-14T07:13:31.405Z,47.60
2022-08-14T07:16:00.736Z,47.60
2022-08-14T07:18:34.730Z,47.60
2022-08-14T07:21:04.469Z,47.70
2022-08-14T07:23:31.573Z,47.50
2022-08-14T07:26:00.039Z,47.40
2022-08-14T07:28:31.342Z,47.50
2022-08-14T07:31:05.044Z,47.50
2022-08-14T07:33:36.758Z,47.40
2022-08-14T07:36:26.421Z,47.40
2022-08-14T07:38:54.037Z,47.50
2022-08-14T07:41:20.701Z,47.30
2022-08-14T07:43:55.294Z,47.30
2022-08-14T07:46:29.131Z,47.30
2022-08-14T07:48:57.133Z,47.30
2022-08-14T07:51:24.112Z,47.20
2022-08-14T07:53:57.061Z,47.20
2022-08-14T07:56:48.048Z,47.10
2022-08-14T07:59:12.830Z,47.10
2022-08-14T08:01:48.320Z,47.00
2022-08-14T08:04:27.055Z,47.00
2022-08-14T08:06:54.944Z,47.00
2022-08-14T08:09:31.949Z,46.90
2022-08-14T08:12:04.565Z,46.90
2022-08-14T08:14:56.939Z,46.80
2022-08-14T08:17:24.239Z,46.70
2022-08-14T08:19:51.848Z,46.50
2022-08-14T08:22:19.107Z,46.50
2022-08-14T08:24:46.538Z,46.50
2022-08-14T08:27:21.395Z,46.50
2022-08-14T08:29:50.709Z,46.50
2022-08-14T08:32:18.434Z,46.60
2022-08-14T08:34:46.800Z,47.00
2022-08-14T08:37:14.698Z,47.20
2022-08-14T08:40:01.799Z,47.50
2022-08-14T08:42:38.734Z,47.60
2022-08-14T08:45:19.277Z,48.10
2022-08-14T08:47:47.200Z,48.20
2022-08-14T08:53:02.850Z,47.20
2022-08-14T08:55:35.953Z,47.20
2022-08-14T08:58:12.518Z,47.00
2022-08-14T09:00:48.753Z,46.10
2022-08-14T09:03:20.582Z,45.60
2022-08-14T09:05:58.033Z,44.20
2022-08-14T09:08:33.975Z,42.50
2022-08-14T09:11:18.741Z,41.90
2022-08-14T09:13:51.976Z,41.90
2022-08-14T09:16:23.674Z,41.10
2022-08-14T09:18:53.219Z,39.60
2022-08-14T09:21:23.866Z,39.70
2022-08-14T09:24:29.353Z,39.30
2022-08-14T09:26:43.803Z,38.20
2022-08-14T09:29:16.401Z,37.50
2022-08-14T09:31:53.262Z,37.00
2022-08-14T09:34:27.181Z,36.30
2022-08-14T09:37:19.277Z,36.00
2022-08-14T09:39:55.537Z,34.50
2022-08-14T09:42:51.273Z,34.30
2022-08-14T09:45:40.292Z,34.20
2022-08-14T09:48:27.593Z,33.60
2022-08-14T09:50:57.462Z,32.60
2022-08-14T09:54:19.312Z,32.00
2022-08-14T09:56:56.738Z,31.70
2022-08-14T09:59:28.177Z,31.50
2022-08-14T10:01:57.007Z,31.30
2022-08-14T10:04:33.721Z,30.90
2022-08-14T10:07:08.384Z,30.30
2022-08-14T10:09:59.986Z,30.00
2022-08-14T10:12:45.865Z,29.70
2022-08-14T10:15:18.592Z,29.60
2022-08-14T10:17:46.757Z,29.50
2022-08-14T10:20:40.536Z,29.60
2022-08-14T10:23:21.945Z,29.10
2022-08-14T10:25:52.890Z,28.60
2022-08-14T10:29:03.891Z,28.50
2022-08-14T10:31:25.805Z,27.90
2022-08-14T10:34:01.441Z,27.30
2022-08-14T10:36:36.917Z,27.50
2022-08-14T10:39:15.769Z,27.60
2022-08-14T10:41:48.511Z,27.30
2022-08-14T10:44:23.079Z,27.50
2022-08-14T10:47:41.176Z,27.10
2022-08-14T10:50:06.353Z,27.30
2022-08-14T10:52:35.800Z,27.10
2022-08-14T10:55:08.096Z,26.80
2022-08-14T10:57:46.834Z,26.10
2022-08-14T11:00:20.766Z,26.10
2022-08-14T11:03:09.624Z,26.20
2022-08-14T11:05:52.143Z,26.40
2022-08-14T11:08:34.099Z,26.20
2022-08-14T11:11:05.346Z,26.20
2022-08-14T11:13:32.793Z,26.20
2022-08-14T11:16:02.041Z,26.10
2022-08-14T11:18:35.782Z,26.00
2022-08-14T11:21:06.957Z,25.90
2022-08-14T11:23:41.215Z,26.00
2022-08-14T11:26:13.543Z,26.10
2022-08-14T11:28:47.781Z,26.30
2022-08-14T11:31:23.657Z,26.30
2022-08-14T11:33:59.304Z,26.10
2022-08-14T11:36:57.201Z,26.10
2022-08-14T11:39:33.486Z,25.50
2022-08-14T11:42:55.673Z,25.50
2022-08-14T11:44:53.823Z,25.70
2022-08-14T11:47:24.613Z,25.70
2022-08-14T11:49:51.944Z,25.50
2022-08-14T11:52:19.465Z,25.50
2022-08-14T11:54:58.321Z,25.50
2022-08-14T11:57:26.273Z,25.00
2022-08-14T12:00:08.681Z,25.20
2022-08-14T12:03:02.819Z,25.00
2022-08-14T12:05:39.626Z,25.00
2022-08-14T12:08:12.217Z,25.00
2022-08-14T12:10:43.326Z,25.00
2022-08-14T12:13:19.244Z,24.90
2022-08-14T12:15:56.698Z,24.80
2022-08-14T12:18:39.887Z,25.00
2022-08-14T12:21:20.592Z,24.70
2022-08-14T12:24:02.589Z,24.60
2022-08-14T12:26:39.063Z,24.70
2022-08-14T12:29:14.389Z,24.70
2022-08-14T12:31:44.980Z,24.50
2022-08-14T12:34:20.448Z,24.30
2022-08-14T12:36:49.840Z,24.10
2022-08-14T12:39:23.771Z,24.10
2022-08-14T12:41:56.996Z,24.00
2022-08-14T12:44:32.259Z,24.10
2022-08-14T12:47:06.221Z,24.00
2022-08-14T12:49:34.361Z,23.90
2022-08-14T12:52:02.841Z,24.00
2022-08-14T12:54:32.130Z,23.90
2022-08-14T12:57:09.094Z,23.70
2022-08-14T12:59:42.660Z,23.30
2022-08-14T13:02:25.991Z,23.50
2022-08-14T13:04:56.523Z,23.50
2022-08-14T13:07:27.291Z,23.60
2022-08-14T13:10:00.837Z,23.70
2022-08-14T13:13:12.407Z,23.70
2022-08-14T13:15:38.264Z,23.80
2022-08-14T13:18:10.420Z,23.80
2022-08-14T13:20:37.749Z,23.90
2022-08-14T13:23:06.072Z,23.80
2022-08-14T13:25:35.365Z,23.90
2022-08-14T13:28:04.755Z,23.80
2022-08-14T13:30:40.170Z,23.60
2022-08-14T13:33:08.165Z,23.70
2022-08-14T13:35:46.049Z,23.50
2022-08-14T13:38:13.777Z,23.50
2022-08-14T13:40:43.766Z,23.50
2022-08-14T13:43:15.422Z,23.20
2022-08-14T13:46:00.498Z,23.00
2022-08-14T13:48:33.214Z,22.90
2022-08-14T13:51:07.907Z,22.80
2022-08-14T13:54:07.049Z,22.70
2022-08-14T13:56:39.081Z,22.70
2022-08-14T13:59:07.338Z,22.90
2022-08-14T14:01:42.926Z,23.00
2022-08-14T14:04:18.887Z,23.20
2022-08-14T14:06:49.250Z,23.60
2022-08-14T14:09:21.268Z,23.30
2022-08-14T14:11:53.000Z,23.40
2022-08-14T14:14:44.602Z,23.30
2022-08-14T14:17:12.543Z,23.40
2022-08-14T14:19:46.593Z,23.30
2022-08-14T14:22:35.938Z,23.10
2022-08-14T14:25:05.162Z,22.90
2022-08-14T14:27:41.692Z,22.90
2022-08-14T14:30:46.163Z,22.80
2022-08-14T14:33:02.129Z,23.30
2022-08-14T14:35:38.410Z,23.00
2022-08-14T14:38:08.828Z,23.00
2022-08-14T14:40:52.305Z,23.30
2022-08-14T14:43:26.364Z,23.30
2022-08-14T14:45:54.931Z,23.40
2022-08-14T14:48:23.334Z,23.30
2022-08-14T14:50:59.423Z,23.20
2022-08-14T14:53:38.562Z,23.20
2022-08-14T14:56:49.722Z,23.20
2022-08-14T14:58:56.530Z,23.10
2022-08-14T15:01:23.985Z,23.00
2022-08-14T15:03:54.072Z,22.90
2022-08-14T15:06:22.704Z,22.90
2022-08-14T15:08:59.692Z,22.90
2022-08-14T15:11:30.518Z,23.00
2022-08-14T15:14:00.254Z,23.00
2022-08-14T15:16:28.315Z,23.00
2022-08-14T15:18:55.047Z,23.20
2022-08-14T15:21:21.856Z,23.20
2022-08-14T15:23:51.492Z,23.30
2022-08-14T15:26:24.167Z,23.30
2022-08-14T15:29:02.742Z,23.30
2022-08-14T15:31:32.568Z,23.20
2022-08-14T15:34:43.299Z,23.20
2022-08-14T15:37:01.010Z,23.10
2022-08-14T15:39:33.810Z,23.10
2022-08-14T15:42:16.013Z,23.10
2022-08-14T15:44:56.827Z,23.10
2022-08-14T15:47:28.223Z,23.10
2022-08-14T15:50:04.677Z,23.20
2022-08-14T15:52:35.404Z,23.30
2022-08-14T15:55:07.962Z,23.30
2022-08-14T15:57:36.386Z,23.30
2022-08-14T16:00:44.453Z,23.20
2022-08-14T16:03:15.838Z,23.20
2022-08-14T16:05:46.038Z,23.30
2022-08-14T16:08:26.575Z,23.40
2022-08-14T16:10:54.426Z,23.40
2022-08-14T16:13:41.861Z,23.40
2022-08-14T16:16:34.434Z,23.50
2022-08-14T16:19:10.645Z,23.50
2022-08-14T16:21:40.805Z,23.50
2022-08-14T16:24:32.493Z,23.50
2022-08-14T16:27:00.420Z,23.50
2022-08-14T16:29:32.945Z,23.60
2022-08-14T16:32:33.499Z,23.70
2022-08-14T16:34:54.738Z,23.70
2022-08-14T16:37:30.572Z,23.70
2022-08-14T16:40:01.470Z,23.80
2022-08-14T16:42:38.625Z,23.90
2022-08-14T16:45:23.673Z,23.90
2022-08-14T16:47:50.802Z,24.00
2022-08-14T16:50:40.626Z,24.00
2022-08-14T16:53:07.227Z,24.00
2022-08-14T16:55:35.303Z,24.10
2022-08-14T16:58:21.446Z,24.10
2022-08-14T17:00:54.152Z,24.20
2022-08-14T17:03:21.451Z,24.20
2022-08-14T17:05:48.315Z,24.30
2022-08-14T17:08:31.967Z,24.60
2022-08-14T17:11:11.134Z,24.30
2022-08-14T17:13:59.737Z,24.40
2022-08-14T17:16:35.936Z,24.30
2022-08-14T17:19:05.578Z,24.30
2022-08-14T17:21:41.611Z,24.20
2022-08-14T17:24:56.787Z,24.10
2022-08-14T17:27:04.224Z,24.30
2022-08-14T17:29:34.839Z,24.20
2022-08-14T17:35:01.553Z,24.20
2022-08-14T17:37:34.249Z,24.30
2022-08-14T17:40:15.893Z,24.30
2022-08-14T17:42:51.496Z,24.40
2022-08-14T17:45:41.093Z,24.40
2022-08-14T17:49:14.660Z,24.60
2022-08-14T17:51:12.359Z,24.60
2022-08-14T17:53:39.346Z,24.60
2022-08-14T17:56:20.657Z,24.80
2022-08-14T17:58:49.382Z,24.80
2022-08-14T18:01:23.384Z,24.90
2022-08-14T18:03:53.908Z,25.00
2022-08-14T18:06:39.723Z,25.20
2022-08-14T18:09:26.319Z,25.20
2022-08-14T18:11:59.926Z,25.30
2022-08-14T18:14:32.293Z,25.60
2022-08-14T18:17:00.769Z,25.50
2022-08-14T18:19:30.117Z,25.50
2022-08-14T18:21:59.269Z,25.70
2022-08-14T18:24:29.706Z,25.80
2022-08-14T18:27:23.227Z,25.90
2022-08-14T18:29:54.929Z,26.20
2022-08-14T18:32:31.914Z,26.10
2022-08-14T18:35:02.374Z,26.40
2022-08-14T18:37:30.832Z,26.40
2022-08-14T18:40:20.051Z,26.40
2022-08-14T18:42:48.234Z,26.80
2022-08-14T18:45:28.892Z,26.60
2022-08-14T18:48:18.053Z,26.80
2022-08-14T18:50:52.663Z,27.00
2022-08-14T18:53:24.829Z,26.90
2022-08-14T18:56:02.034Z,26.90
2022-08-14T18:58:57.177Z,27.20
2022-08-14T19:01:29.813Z,27.30
2022-08-14T19:03:59.084Z,27.10
2022-08-14T19:06:41.506Z,27.20
2022-08-14T19:10:05.766Z,27.50
2022-08-14T19:12:55.024Z,27.60
2022-08-14T19:15:25.685Z,27.60
2022-08-14T19:18:14.033Z,27.40
2022-08-14T19:20:52.787Z,27.50
2022-08-14T19:23:23.531Z,27.70
2022-08-14T19:26:34.694Z,27.70
2022-08-14T19:29:24.321Z,27.90
2022-08-14T19:32:04.382Z,27.90
2022-08-14T19:34:36.512Z,27.90
2022-08-14T19:37:06.729Z,28.00
2022-08-14T19:39:54.532Z,28.00
2022-08-14T19:42:28.342Z,28.40
2022-08-14T19:44:58.095Z,28.30
2022-08-14T19:47:38.738Z,28.20
2022-08-14T19:50:38.028Z,28.70
2022-08-14T19:53:10.919Z,28.40
2022-08-14T19:55:45.431Z,28.70
2022-08-14T19:58:13.242Z,28.60
2022-08-14T20:00:52.585Z,28.70
2022-08-14T20:03:24.194Z,28.80
2022-08-14T20:06:03.281Z,28.90
2022-08-14T20:11:01.207Z,29.20
2022-08-14T20:11:42.935Z,28.90
2022-08-14T20:14:20.547Z,29.30
2022-08-14T20:16:54.658Z,29.00
2022-08-14T20:19:29.214Z,29.20
2022-08-14T20:22:34.671Z,29.40
2022-08-14T20:24:47.233Z,29.40
2022-08-14T20:27:40.162Z,29.30
2022-08-14T20:30:33.415Z,29.80
2022-08-14T20:33:01.704Z,29.50
2022-08-14T20:35:49.294Z,29.60
2022-08-14T20:38:32.610Z,29.90
2022-08-14T20:41:05.862Z,29.90
2022-08-14T20:43:57.578Z,29.80
2022-08-14T20:46:38.702Z,29.90
2022-08-14T20:49:16.013Z,30.00
2022-08-14T20:51:47.620Z,30.00
2022-08-14T20:54:34.544Z,30.00
2022-08-14T20:57:17.877Z,30.10
2022-08-14T20:59:53.456Z,30.40
2022-08-14T21:02:49.867Z,30.40
2022-08-14T21:05:34.132Z,30.60
2022-08-14T21:08:08.443Z,30.80
2022-08-14T21:10:44.406Z,30.40
2022-08-14T21:13:29.114Z,30.60
2022-08-14T21:16:33.686Z,30.90
2022-08-14T21:18:58.181Z,31.00
2022-08-14T21:21:40.708Z,30.90
2022-08-14T21:24:38.818Z,31.20
2022-08-14T21:27:12.786Z,31.30
2022-08-14T21:29:53.466Z,31.50
2022-08-14T21:32:34.080Z,31.40
2022-08-14T21:35:08.362Z,31.50
2022-08-14T21:37:44.897Z,31.60
2022-08-14T21:40:39.884Z,32.30
2022-08-14T21:43:02.538Z,31.80
2022-08-14T21:45:31.753Z,32.00
2022-08-14T21:48:09.144Z,32.40
2022-08-14T21:51:00.447Z,32.30
2022-08-14T21:53:30.870Z,32.50
2022-08-14T21:55:58.654Z,32.50
2022-08-14T21:58:53.299Z,32.60
2022-08-14T22:01:16.230Z,32.60
2022-08-14T22:03:54.533Z,32.70
2022-08-14T22:06:29.001Z,32.60
2022-08-14T22:08:57.915Z,32.80
2022-08-14T22:11:25.691Z,33.00
2022-08-14T22:13:56.219Z,33.10
2022-08-14T22:17:01.662Z,33.10
2022-08-14T22:19:19.011Z,33.20
2022-08-14T22:24:38.636Z,33.20
2022-08-14T22:27:19.073Z,33.20
2022-08-14T22:29:54.708Z,33.50
2022-08-14T22:32:30.167Z,33.60
2022-08-14T22:35:12.318Z,33.70
2022-08-14T22:37:44.639Z,33.70
2022-08-14T22:40:55.201Z,33.70
2022-08-14T22:43:08.103Z,33.90
2022-08-14T22:45:37.783Z,33.90
2022-08-14T22:48:11.142Z,34.00
2022-08-14T22:50:49.198Z,34.20
2022-08-14T22:53:21.754Z,34.40
2022-08-14T22:55:52.138Z,34.20
2022-08-14T22:58:31.824Z,34.30
2022-08-14T23:01:10.215Z,34.40
2022-08-14T23:03:42.333Z,34.30
2022-08-14T23:07:02.964Z,34.40
2022-08-14T23:09:35.869Z,34.60
2022-08-14T23:11:49.229Z,34.50
2022-08-14T23:14:23.887Z,34.50
2022-08-14T23:16:57.450Z,34.70
2022-08-14T23:19:33.859Z,34.70
2022-08-14T23:22:04.969Z,34.70
2022-08-14T23:24:31.918Z,34.70
2022-08-14T23:26:58.934Z,34.80
2022-08-14T23:29:27.229Z,34.90
2022-08-14T23:31:59.224Z,35.00
2022-08-14T23:34:29.404Z,35.10
2022-08-14T23:36:57.640Z,35.20
2022-08-14T23:39:33.115Z,35.40
2022-08-14T23:42:08.392Z,35.50
2022-08-14T23:44:37.626Z,35.70
2022-08-14T23:47:11.709Z,35.40
2022-08-14T23:50:01.269Z,35.60
2022-08-14T23:53:06.477Z,35.50
2022-08-14T23:55:28.698Z,35.90
2022-08-14T23:57:58.556Z,35.70
